Terminal Aerodrome Forecast
Issued by NWS Topeka, KS

Home | Current Version | Previous Version | Text Only | Print | Product List | Glossary Off
Versions: 1 2 3 4 5 6 7 8 9 10 11 12 13 14 15 16 17

000
FTUS43 KTOP 071013 AAB
TAFTOP
TAF AMD
KTOP 071013Z 0710/0806 23009KT P6SM BKN150 WS010/24045KT
     FM071300 29011KT P6SM BKN150
     FM071700 30019G28KT P6SM SCT080
     FM080000 30014G22KT P6SM SCT100=

USA.gov is the U.S. government's official web portal to all federal, state and local government web resources and services.